WetterOnline ( https://www.wetteronline.de )

Wetter aktuell Hochfellnhaus

Aktuelles Wetter: Chieming (553m)

6-stündlich | Neueste Meldungen
Ortszeit Temperatur Wetter
So, 14.07. 20:00 21.9° C bedeckt
So, 14.07. 14:00 21.4° C fast wolkenlos
So, 14.07. 8:00 16.5° C bedeckt
So, 14.07. 2:00 15.7° C bedeckt
Sa, 13.07. 20:00 17.0° C bedeckt
Sa, 13.07. 14:00 19.3° C bedeckt
Sa, 13.07. 8:00 16.7° C leicht bewölkt
Sa, 13.07. 2:00 16.3° C Regen
Ortszeit Temperatur Wetter
Mo, 15.07. 0:00 18.7° C bedeckt
So, 14.07. 23:50 18.7° C bedeckt
So, 14.07. 23:40 18.9° C bedeckt
So, 14.07. 23:30 18.8° C bedeckt
So, 14.07. 23:20 18.8° C bedeckt
So, 14.07. 23:10 19.0° C bedeckt
So, 14.07. 23:00 19.1° C wolkig
So, 14.07. 22:30 19.2° C bewölkt
So, 14.07. 22:00 20.5° C bewölkt
So, 14.07. 21:30 20.7° C bedeckt
So, 14.07. 21:00 20.7° C bedeckt
Ortszeit Relative Feuchte Sichtweite
So, 14.07. 20:00 71% 60 km
So, 14.07. 14:00 62% 45 km
So, 14.07. 8:00 87% >70 km
So, 14.07. 2:00 88% 50 km
Sa, 13.07. 20:00 87% 50 km
Sa, 13.07. 14:00 71% >70 km
Sa, 13.07. 8:00 81% >70 km
Sa, 13.07. 2:00 95% 6 km
Ortszeit Relative Feuchte Sichtweite
Mo, 15.07. 0:00 76% 60 km
So, 14.07. 23:50 76% -
So, 14.07. 23:40 76% -
So, 14.07. 23:30 82% 60 km
So, 14.07. 23:20 82% -
So, 14.07. 23:10 81% -
So, 14.07. 23:00 79% 55 km
So, 14.07. 22:30 84% 50 km
So, 14.07. 22:00 72% 60 km
So, 14.07. 21:30 75% 45 km
So, 14.07. 21:00 72% 55 km
Ortszeit Niederschlagsmenge Niederschlagsart
So, 14.07. 20:00 0.0 l/m2 in 12 Std. -
So, 14.07. 14:00 0.0 l/m2 in 6 Std. -
So, 14.07. 8:00 0.1 l/m2 in 12 Std. -
So, 14.07. 2:00 0.1 l/m2 in 6 Std. Regen
Sa, 13.07. 20:00 0.1 l/m2 in 12 Std. Regen
Sa, 13.07. 14:00 0.0 l/m2 in 6 Std. -
Sa, 13.07. 8:00 25 l/m2 in 12 Std. Regen
Sa, 13.07. 2:00 12 l/m2 in 6 Std. Regen
Ortszeit Niederschlagsmenge Niederschlagsart
Mo, 15.07. 0:00 <0.05 l/m2 in 1 Std. Regen
So, 14.07. 23:50 keine Meldung -
So, 14.07. 23:40 keine Meldung -
So, 14.07. 23:30 <0.05 l/m2 in 30 Min Schneeregen
So, 14.07. 23:20 keine Meldung -
So, 14.07. 23:10 keine Meldung -
So, 14.07. 23:00 <0.05 l/m2 in 1 Std. Regen
So, 14.07. 22:30 0.0 l/m2 in 30 Min -
So, 14.07. 22:00 0.0 l/m2 in 1 Std. -
So, 14.07. 21:30 0.0 l/m2 in 30 Min -
So, 14.07. 21:00 0.0 l/m2 in 1 Std. -
Ortszeit Stärke Spitze Richtung
km/h Bft. km/h Grad Sektor
So, 14.07. 20:00 7 2 15 190° S
So, 14.07. 14:00 9 2 15 270° W
So, 14.07. 8:00 6 1 13 20° N
So, 14.07. 2:00 7 2 22 170° S
Sa, 13.07. 20:00 9 2 20 180° S
Sa, 13.07. 14:00 9 2 20 30° NO
Sa, 13.07. 8:00 7 2 22 220° SW
Sa, 13.07. 2:00 14 3 76 240° SW
Ortszeit Stärke Spitze Richtung
km/h Bft. km/h Grad Sektor
Mo, 15.07. 0:00 7 2 11 140° SO
So, 14.07. 23:50 7 2 - 140° SO
So, 14.07. 23:40 7 2 - 120° SO
So, 14.07. 23:30 4 1 11 40° NO
So, 14.07. 23:20 4 1 - 40° NO
So, 14.07. 23:10 7 2 - 120° SO
So, 14.07. 23:00 7 2 11 130° SO
So, 14.07. 22:30 4 1 7 120° SO
So, 14.07. 22:00 2 1 7 130° SO
So, 14.07. 21:30 4 1 7 60° NO
So, 14.07. 21:00 7 2 11 140° SO
Ortszeit Untergrenze Bedeckung Gattung
total tief tief mittel hoch
So, 14.07. 20:00 1800 m 8/8 8/8 - - -
So, 14.07. 14:00 1170 m 1/8 1/8 - - -
So, 14.07. 8:00 960 m 8/8 8/8 - - -
So, 14.07. 2:00 600 m 8/8 8/8 - - -
Sa, 13.07. 20:00 780 m 8/8 8/8 - - -
Sa, 13.07. 14:00 1500 m 8/8 8/8 - - -
Sa, 13.07. 8:00 3300 m 2/8 2/8 - - -
Sa, 13.07. 2:00 390 m 8/8 8/8 - - -
Ortszeit Bedeckungsgrad in Achtel und Wolkenuntergrenze
Mo, 15.07. 0:00 2(3600m) 8(4500m)
So, 14.07. 23:50 2(3600m) 8(4500m)
So, 14.07. 23:40 8
So, 14.07. 23:30 5(3300m) 8(4500m)
So, 14.07. 23:20 5(3300m) 8(4500m)
So, 14.07. 23:10 8
So, 14.07. 23:00 3(2400m) 8(3300m)
So, 14.07. 22:30 7(2400m) 8(4200m) 8(4800m)
So, 14.07. 22:00 6(2100m) 7(2400m) 8(4800m)
So, 14.07. 21:30 7(2100m) 8(2400m)
So, 14.07. 21:00 8(2100m)
Ortszeit Luftdruck NN (hPa) Tendenz (hPa in 3 Std.)
So, 14.07. 20:00 1014 + 0,6
So, 14.07. 14:00 1014 - 0,1
So, 14.07. 8:00 1015 + 0,9
So, 14.07. 2:00 1015 0,0
Sa, 13.07. 20:00 1014 + 0,4
Sa, 13.07. 14:00 1013 - 0,2
Sa, 13.07. 8:00 1014 - 0,1
Sa, 13.07. 2:00 1014 + 0,3
Ortszeit Luftdruck NN (hPa) Tendenz (hPa in 3 Std.)
Mo, 15.07. 0:00 1015 + 0,1
So, 14.07. 23:50 1015 keine Meldung
So, 14.07. 23:40 1015 keine Meldung
So, 14.07. 23:30 1015 + 0,2
So, 14.07. 23:20 1015 keine Meldung
So, 14.07. 23:10 1015 keine Meldung
So, 14.07. 23:00 1015 + 0,4
So, 14.07. 22:30 1015 + 1,0
So, 14.07. 22:00 1015 + 0,7
So, 14.07. 21:30 1015 + 0,8
So, 14.07. 21:00 1014 + 0,7
Ortszeit Schneehöhe (cm)
So, 14.07. 20:00 0
So, 14.07. 14:00 0
So, 14.07. 8:00 0
So, 14.07. 2:00 0
Sa, 13.07. 20:00 0
Sa, 13.07. 14:00 0
Sa, 13.07. 8:00 0
Sa, 13.07. 2:00 0
Ortszeit Schneehöhe (cm)
Mo, 15.07. 0:00 0
So, 14.07. 23:50 0
So, 14.07. 23:40 -
So, 14.07. 23:30 0
So, 14.07. 23:20 0
So, 14.07. 23:10 -
So, 14.07. 23:00 0
So, 14.07. 22:30 0
So, 14.07. 22:00 0
So, 14.07. 21:30 0
So, 14.07. 21:00 0
Link zu dieser Seite / Seite empfehlen

Das Wetter in ...